TIST/STT METAR and TAF weather

Enter ICAO airport designator
Station Type Date Time Source
TIST METAR 2019/05/25 14:53 UTC NOAA

TIST 251453Z 13012KT 10SM SCT035 29/22 A2998 RMK AO2 SLP153 T02940222 50002 $


Station Type Date Time Source
TIST Decoded METAR 2019/05/25 14:53 UTC NOAA

Charlotte Amalie St. Thomas, Cyril E. King Airport, Virgin Islands (TIST) 18-20N 064-59W
May 25, 2019 - 10:53 AM EDT / 2019.05.25 1453 UTC
Wind: from the SE (130 degrees) at 14 MPH (12 KT):0
Visibility: 10 mile(s):0
Sky conditions: partly cloudy
Temperature: 84.9 F (29.4 C)
Dew Point: 72.0 F (22.2 C)
Relative Humidity: 65%
Pressure (altimeter): 29.98 in. Hg (1015 hPa)
Pressure tendency: 0.01 inches (0.2 hPa) higher than three hours ago
ob: TIST 251453Z 13012KT 10SM SCT035 29/22 A2998 RMK AO2 SLP153 T02940222 50002
cycle: 15

Station Type Date Time Source
TIST TAF 2019/05/25 12:24 UTC NOAA

TAF TIST 251120Z 2512/2612 08005KT P6SM VCSH SCT025 SCT040
FM251400 12012KT P6SM SCT030 SCT050
FM252300 09010KT P6SM SCT030 SCT070

Example: see airport list